sensor_id;sensor_type;location;lat;lon;timestamp;temperature;humidity
16863;DHT22;52193;48.216;-1.698;2023-03-01T00:01:27;8.40;87.70
16863;DHT22;52193;48.216;-1.698;2023-03-01T00:03:55;8.30;87.50
16863;DHT22;52193;48.216;-1.698;2023-03-01T00:06:22;8.20;87.50
16863;DHT22;52193;48.216;-1.698;2023-03-01T00:08:50;8.10;87.50
16863;DHT22;52193;48.216;-1.698;2023-03-01T00:11:19;8.10;87.60
16863;DHT22;52193;48.216;-1.698;2023-03-01T00:13:49;8.10;87.50
16863;DHT22;52193;48.216;-1.698;2023-03-01T00:16:18;8.00;87.40
16863;DHT22;52193;48.216;-1.698;2023-03-01T00:18:47;8.00;87.30
16863;DHT22;52193;48.216;-1.698;2023-03-01T00:21:14;8.00;87.40
16863;DHT22;52193;48.216;-1.698;2023-03-01T00:23:41;8.00;87.50
16863;DHT22;52193;48.216;-1.698;2023-03-01T00:26:10;8.00;87.60
16863;DHT22;52193;48.216;-1.698;2023-03-01T00:28:37;8.00;87.50
16863;DHT22;52193;48.216;-1.698;2023-03-01T00:31:04;8.00;87.40
16863;DHT22;52193;48.216;-1.698;2023-03-01T00:33:31;8.00;87.20
16863;DHT22;52193;48.216;-1.698;2023-03-01T00:36:00;7.90;87.30
16863;DHT22;52193;48.216;-1.698;2023-03-01T00:38:27;7.90;87.20
16863;DHT22;52193;48.216;-1.698;2023-03-01T00:40:54;7.90;87.10
16863;DHT22;52193;48.216;-1.698;2023-03-01T00:43:22;7.90;87.30
16863;DHT22;52193;48.216;-1.698;2023-03-01T00:45:48;7.90;87.10
16863;DHT22;52193;48.216;-1.698;2023-03-01T00:48:15;7.90;87.10
16863;DHT22;52193;48.216;-1.698;2023-03-01T00:50:42;7.90;87.10
16863;DHT22;52193;48.216;-1.698;2023-03-01T00:53:10;7.90;87.20
16863;DHT22;52193;48.216;-1.698;2023-03-01T00:55:37;7.90;87.20
16863;DHT22;52193;48.216;-1.698;2023-03-01T00:58:04;7.90;87.20
16863;DHT22;52193;48.216;-1.698;2023-03-01T01:00:31;7.80;86.70
16863;DHT22;52193;48.216;-1.698;2023-03-01T01:02:59;7.70;86.70
16863;DHT22;52193;48.216;-1.698;2023-03-01T01:05:26;7.70;86.70
16863;DHT22;52193;48.216;-1.698;2023-03-01T01:07:53;7.70;86.90
16863;DHT22;52193;48.216;-1.698;2023-03-01T01:10:21;7.70;86.80
16863;DHT22;52193;48.216;-1.698;2023-03-01T01:12:48;7.60;86.80
16863;DHT22;52193;48.216;-1.698;2023-03-01T01:15:15;7.60;87.30
16863;DHT22;52193;48.216;-1.698;2023-03-01T01:17:42;7.60;86.80
16863;DHT22;52193;48.216;-1.698;2023-03-01T01:20:10;7.60;87.00
16863;DHT22;52193;48.216;-1.698;2023-03-01T01:22:37;7.60;86.90
16863;DHT22;52193;48.216;-1.698;2023-03-01T01:25:05;7.60;86.50
16863;DHT22;52193;48.216;-1.698;2023-03-01T01:27:33;7.60;86.40
16863;DHT22;52193;48.216;-1.698;2023-03-01T01:30:00;7.50;86.20
16863;DHT22;52193;48.216;-1.698;2023-03-01T01:32:27;7.50;86.40
16863;DHT22;52193;48.216;-1.698;2023-03-01T01:34:55;7.50;86.30
16863;DHT22;52193;48.216;-1.698;2023-03-01T01:37:22;7.50;86.00
16863;DHT22;52193;48.216;-1.698;2023-03-01T01:39:56;7.60;85.90
16863;DHT22;52193;48.216;-1.698;2023-03-01T01:42:23;7.50;85.50
16863;DHT22;52193;48.216;-1.698;2023-03-01T01:45:26;7.50;85.50
16863;DHT22;52193;48.216;-1.698;2023-03-01T01:47:55;7.50;85.20
16863;DHT22;52193;48.216;-1.698;2023-03-01T01:50:23;7.50;85.20
16863;DHT22;52193;48.216;-1.698;2023-03-01T01:52:51;7.50;85.00
16863;DHT22;52193;48.216;-1.698;2023-03-01T01:55:21;7.50;85.10
16863;DHT22;52193;48.216;-1.698;2023-03-01T01:57:52;7.50;85.00
16863;DHT22;52193;48.216;-1.698;2023-03-01T02:00:22;7.50;84.90
16863;DHT22;52193;48.216;-1.698;2023-03-01T02:02:56;7.50;84.50
16863;DHT22;52193;48.216;-1.698;2023-03-01T02:05:31;7.50;84.60
16863;DHT22;52193;48.216;-1.698;2023-03-01T02:08:00;7.50;84.40
16863;DHT22;52193;48.216;-1.698;2023-03-01T02:10:28;7.50;84.30
16863;DHT22;52193;48.216;-1.698;2023-03-01T02:12:56;7.40;84.00
16863;DHT22;52193;48.216;-1.698;2023-03-01T02:15:23;7.40;84.00
16863;DHT22;52193;48.216;-1.698;2023-03-01T02:17:54;7.40;84.00
16863;DHT22;52193;48.216;-1.698;2023-03-01T02:20:28;7.40;84.10
16863;DHT22;52193;48.216;-1.698;2023-03-01T02:22:58;7.40;83.90
16863;DHT22;52193;48.216;-1.698;2023-03-01T02:25:36;7.40;84.10
16863;DHT22;52193;48.216;-1.698;2023-03-01T02:30:45;7.40;83.80
16863;DHT22;52193;48.216;-1.698;2023-03-01T02:33:27;7.40;83.60
16863;DHT22;52193;48.216;-1.698;2023-03-01T02:35:59;7.40;83.50
16863;DHT22;52193;48.216;-1.698;2023-03-01T02:38:28;7.40;83.40
16863;DHT22;52193;48.216;-1.698;2023-03-01T02:40:56;7.40;83.30
16863;DHT22;52193;48.216;-1.698;2023-03-01T02:43:27;7.30;83.10
16863;DHT22;52193;48.216;-1.698;2023-03-01T02:45:59;7.30;83.30
16863;DHT22;52193;48.216;-1.698;2023-03-01T02:48:26;7.30;83.20
16863;DHT22;52193;48.216;-1.698;2023-03-01T02:51:04;7.20;83.10
16863;DHT22;52193;48.216;-1.698;2023-03-01T02:53:41;7.20;83.20
16863;DHT22;52193;48.216;-1.698;2023-03-01T02:56:11;7.20;83.10
16863;DHT22;52193;48.216;-1.698;2023-03-01T02:58:40;7.20;83.00
16863;DHT22;52193;48.216;-1.698;2023-03-01T03:01:12;7.20;83.00
16863;DHT22;52193;48.216;-1.698;2023-03-01T03:03:41;7.10;82.90
16863;DHT22;52193;48.216;-1.698;2023-03-01T03:06:09;7.10;83.20
16863;DHT22;52193;48.216;-1.698;2023-03-01T03:08:36;7.10;83.10
16863;DHT22;52193;48.216;-1.698;2023-03-01T03:11:03;7.00;82.80
16863;DHT22;52193;48.216;-1.698;2023-03-01T03:13:30;7.00;83.00
16863;DHT22;52193;48.216;-1.698;2023-03-01T03:15:58;7.00;83.00
16863;DHT22;52193;48.216;-1.698;2023-03-01T03:18:26;7.00;83.20
16863;DHT22;52193;48.216;-1.698;2023-03-01T03:20:53;7.00;83.00
16863;DHT22;52193;48.216;-1.698;2023-03-01T03:23:21;6.90;82.70
16863;DHT22;52193;48.216;-1.698;2023-03-01T03:25:49;7.00;83.20
16863;DHT22;52193;48.216;-1.698;2023-03-01T03:28:16;6.90;82.80
16863;DHT22;52193;48.216;-1.698;2023-03-01T03:30:44;6.90;83.00
16863;DHT22;52193;48.216;-1.698;2023-03-01T03:33:12;6.90;82.60
16863;DHT22;52193;48.216;-1.698;2023-03-01T03:35:43;6.90;82.30
16863;DHT22;52193;48.216;-1.698;2023-03-01T03:38:12;6.80;82.00
16863;DHT22;52193;48.216;-1.698;2023-03-01T03:40:44;6.90;82.40
16863;DHT22;52193;48.216;-1.698;2023-03-01T03:43:13;6.90;82.40
16863;DHT22;52193;48.216;-1.698;2023-03-01T03:45:41;6.80;83.10
16863;DHT22;52193;48.216;-1.698;2023-03-01T03:48:09;6.80;82.10
16863;DHT22;52193;48.216;-1.698;2023-03-01T03:50:36;6.80;82.30
16863;DHT22;52193;48.216;-1.698;2023-03-01T03:53:07;6.70;82.40
16863;DHT22;52193;48.216;-1.698;2023-03-01T03:55:35;6.70;82.30
16863;DHT22;52193;48.216;-1.698;2023-03-01T03:58:05;6.60;82.20
16863;DHT22;52193;48.216;-1.698;2023-03-01T04:00:34;6.50;82.30
16863;DHT22;52193;48.216;-1.698;2023-03-01T04:03:01;6.60;82.40
16863;DHT22;52193;48.216;-1.698;2023-03-01T04:05:28;6.50;82.30
16863;DHT22;52193;48.216;-1.698;2023-03-01T04:07:56;6.50;83.40
16863;DHT22;52193;48.216;-1.698;2023-03-01T04:10:30;6.60;82.60
16863;DHT22;52193;48.216;-1.698;2023-03-01T04:12:57;6.50;82.60
16863;DHT22;52193;48.216;-1.698;2023-03-01T04:15:25;6.40;82.70
16863;DHT22;52193;48.216;-1.698;2023-03-01T04:17:54;6.50;82.90
16863;DHT22;52193;48.216;-1.698;2023-03-01T04:20:23;6.40;82.70
16863;DHT22;52193;48.216;-1.698;2023-03-01T04:22:52;6.50;82.60
16863;DHT22;52193;48.216;-1.698;2023-03-01T04:25:19;6.50;82.60
16863;DHT22;52193;48.216;-1.698;2023-03-01T04:27:48;6.50;82.50
16863;DHT22;52193;48.216;-1.698;2023-03-01T04:30:15;6.50;82.70
16863;DHT22;52193;48.216;-1.698;2023-03-01T04:32:42;6.40;82.40
16863;DHT22;52193;48.216;-1.698;2023-03-01T04:35:09;6.50;82.40
16863;DHT22;52193;48.216;-1.698;2023-03-01T04:37:36;6.40;82.10
16863;DHT22;52193;48.216;-1.698;2023-03-01T04:40:04;6.40;82.20
16863;DHT22;52193;48.216;-1.698;2023-03-01T04:42:38;6.40;82.30
16863;DHT22;52193;48.216;-1.698;2023-03-01T04:45:07;6.50;82.40
16863;DHT22;52193;48.216;-1.698;2023-03-01T04:47:39;6.40;81.90
16863;DHT22;52193;48.216;-1.698;2023-03-01T04:50:07;6.50;82.00
16863;DHT22;52193;48.216;-1.698;2023-03-01T04:52:34;6.50;81.80
16863;DHT22;52193;48.216;-1.698;2023-03-01T04:55:02;6.50;81.70
16863;DHT22;52193;48.216;-1.698;2023-03-01T04:57:29;6.50;81.90
16863;DHT22;52193;48.216;-1.698;2023-03-01T04:59:56;6.50;81.70
16863;DHT22;52193;48.216;-1.698;2023-03-01T05:02:25;6.50;81.70
16863;DHT22;52193;48.216;-1.698;2023-03-01T05:04:51;6.50;81.30
16863;DHT22;52193;48.216;-1.698;2023-03-01T05:07:23;6.50;81.10
16863;DHT22;52193;48.216;-1.698;2023-03-01T05:09:50;6.50;81.20
16863;DHT22;52193;48.216;-1.698;2023-03-01T05:12:17;6.50;81.10
16863;DHT22;52193;48.216;-1.698;2023-03-01T05:14:44;6.60;81.50
16863;DHT22;52193;48.216;-1.698;2023-03-01T05:17:11;6.60;81.40
16863;DHT22;52193;48.216;-1.698;2023-03-01T05:19:39;6.50;80.80
16863;DHT22;52193;48.216;-1.698;2023-03-01T05:22:08;6.50;81.00
16863;DHT22;52193;48.216;-1.698;2023-03-01T05:24:35;6.50;80.90
16863;DHT22;52193;48.216;-1.698;2023-03-01T05:27:02;6.40;80.80
16863;DHT22;52193;48.216;-1.698;2023-03-01T05:29:31;6.40;80.70
16863;DHT22;52193;48.216;-1.698;2023-03-01T05:32:01;6.40;80.80
16863;DHT22;52193;48.216;-1.698;2023-03-01T05:34:29;6.40;80.90
16863;DHT22;52193;48.216;-1.698;2023-03-01T05:36:58;6.40;80.60
16863;DHT22;52193;48.216;-1.698;2023-03-01T05:39:26;6.30;81.00
16863;DHT22;52193;48.216;-1.698;2023-03-01T05:41:55;6.40;81.00
16863;DHT22;52193;48.216;-1.698;2023-03-01T05:44:23;6.30;80.70
16863;DHT22;52193;48.216;-1.698;2023-03-01T05:46:50;6.30;80.80
16863;DHT22;52193;48.216;-1.698;2023-03-01T05:49:17;6.30;80.80
16863;DHT22;52193;48.216;-1.698;2023-03-01T05:51:49;6.30;80.80
16863;DHT22;52193;48.216;-1.698;2023-03-01T05:54:17;6.30;80.60
16863;DHT22;52193;48.216;-1.698;2023-03-01T05:56:45;6.30;80.30
16863;DHT22;52193;48.216;-1.698;2023-03-01T05:59:12;6.30;80.40
16863;DHT22;52193;48.216;-1.698;2023-03-01T06:01:40;6.30;80.40
16863;DHT22;52193;48.216;-1.698;2023-03-01T06:04:07;6.30;80.40
16863;DHT22;52193;48.216;-1.698;2023-03-01T06:06:34;6.30;80.30
16863;DHT22;52193;48.216;-1.698;2023-03-01T06:09:02;6.30;80.20
16863;DHT22;52193;48.216;-1.698;2023-03-01T06:11:31;6.30;80.10
16863;DHT22;52193;48.216;-1.698;2023-03-01T06:13:59;6.30;79.80
16863;DHT22;52193;48.216;-1.698;2023-03-01T06:16:26;6.30;79.90
16863;DHT22;52193;48.216;-1.698;2023-03-01T06:18:53;6.40;80.00
16863;DHT22;52193;48.216;-1.698;2023-03-01T06:21:20;6.40;80.00
16863;DHT22;52193;48.216;-1.698;2023-03-01T06:23:47;6.40;79.70
16863;DHT22;52193;48.216;-1.698;2023-03-01T06:26:14;6.30;79.80
16863;DHT22;52193;48.216;-1.698;2023-03-01T06:28:42;6.30;79.80
16863;DHT22;52193;48.216;-1.698;2023-03-01T06:31:11;6.30;79.80
16863;DHT22;52193;48.216;-1.698;2023-03-01T06:33:38;6.30;79.80
16863;DHT22;52193;48.216;-1.698;2023-03-01T06:36:06;6.20;79.90
16863;DHT22;52193;48.216;-1.698;2023-03-01T06:38:33;6.20;79.80
16863;DHT22;52193;48.216;-1.698;2023-03-01T06:41:00;6.20;80.00
16863;DHT22;52193;48.216;-1.698;2023-03-01T06:43:27;6.10;80.00
16863;DHT22;52193;48.216;-1.698;2023-03-01T06:45:55;6.20;80.20
16863;DHT22;52193;48.216;-1.698;2023-03-01T06:48:22;6.20;80.00
16863;DHT22;52193;48.216;-1.698;2023-03-01T06:50:49;6.10;79.70
16863;DHT22;52193;48.216;-1.698;2023-03-01T06:53:16;6.10;79.80
16863;DHT22;52193;48.216;-1.698;2023-03-01T06:55:43;6.10;79.60
16863;DHT22;52193;48.216;-1.698;2023-03-01T06:58:10;6.10;80.10
16863;DHT22;52193;48.216;-1.698;2023-03-01T07:00:37;6.20;79.90
16863;DHT22;52193;48.216;-1.698;2023-03-01T07:03:08;6.20;79.90
16863;DHT22;52193;48.216;-1.698;2023-03-01T07:05:35;6.10;79.60
16863;DHT22;52193;48.216;-1.698;2023-03-01T07:08:02;6.10;79.60
16863;DHT22;52193;48.216;-1.698;2023-03-01T07:10:29;6.20;79.70
16863;DHT22;52193;48.216;-1.698;2023-03-01T07:12:56;6.20;79.70
16863;DHT22;52193;48.216;-1.698;2023-03-01T07:15:24;6.20;80.50
16863;DHT22;52193;48.216;-1.698;2023-03-01T07:17:51;6.20;79.50
16863;DHT22;52193;48.216;-1.698;2023-03-01T07:20:20;6.30;79.70
16863;DHT22;52193;48.216;-1.698;2023-03-01T07:22:50;6.30;79.80
16863;DHT22;52193;48.216;-1.698;2023-03-01T07:25:17;6.30;80.50
16863;DHT22;52193;48.216;-1.698;2023-03-01T07:27:45;6.20;79.60
16863;DHT22;52193;48.216;-1.698;2023-03-01T07:30:15;6.20;79.70
16863;DHT22;52193;48.216;-1.698;2023-03-01T07:32:42;6.20;79.60
16863;DHT22;52193;48.216;-1.698;2023-03-01T07:35:10;6.20;79.60
16863;DHT22;52193;48.216;-1.698;2023-03-01T07:37:39;6.20;79.90
16863;DHT22;52193;48.216;-1.698;2023-03-01T07:40:07;6.30;79.80
16863;DHT22;52193;48.216;-1.698;2023-03-01T07:42:34;6.20;79.60
16863;DHT22;52193;48.216;-1.698;2023-03-01T07:45:01;6.30;79.50
16863;DHT22;52193;48.216;-1.698;2023-03-01T07:47:28;6.30;79.50
16863;DHT22;52193;48.216;-1.698;2023-03-01T07:49:55;6.30;79.40
16863;DHT22;52193;48.216;-1.698;2023-03-01T07:52:22;6.30;79.60
16863;DHT22;52193;48.216;-1.698;2023-03-01T07:54:50;6.30;79.40
16863;DHT22;52193;48.216;-1.698;2023-03-01T07:57:17;6.30;79.70
16863;DHT22;52193;48.216;-1.698;2023-03-01T07:59:44;6.40;79.60
16863;DHT22;52193;48.216;-1.698;2023-03-01T08:02:11;6.50;79.80
16863;DHT22;52193;48.216;-1.698;2023-03-01T08:04:38;6.50;79.80
16863;DHT22;52193;48.216;-1.698;2023-03-01T08:07:05;6.50;79.70
16863;DHT22;52193;48.216;-1.698;2023-03-01T08:09:34;6.50;79.50
16863;DHT22;52193;48.216;-1.698;2023-03-01T08:12:03;6.60;79.80
16863;DHT22;52193;48.216;-1.698;2023-03-01T08:14:30;6.50;79.50
16863;DHT22;52193;48.216;-1.698;2023-03-01T08:16:57;6.60;79.80
16863;DHT22;52193;48.216;-1.698;2023-03-01T08:19:24;6.60;79.90
16863;DHT22;52193;48.216;-1.698;2023-03-01T08:21:51;6.70;79.80
16863;DHT22;52193;48.216;-1.698;2023-03-01T08:24:18;6.80;79.90
16863;DHT22;52193;48.216;-1.698;2023-03-01T08:26:45;6.80;80.00
16863;DHT22;52193;48.216;-1.698;2023-03-01T08:29:13;6.80;80.00
16863;DHT22;52193;48.216;-1.698;2023-03-01T08:31:40;6.90;80.20
16863;DHT22;52193;48.216;-1.698;2023-03-01T08:34:09;6.90;80.00
16863;DHT22;52193;48.216;-1.698;2023-03-01T08:36:38;6.90;80.20
16863;DHT22;52193;48.216;-1.698;2023-03-01T08:39:07;7.00;80.30
16863;DHT22;52193;48.216;-1.698;2023-03-01T08:41:35;7.00;80.00
16863;DHT22;52193;48.216;-1.698;2023-03-01T08:44:02;7.10;80.30
16863;DHT22;52193;48.216;-1.698;2023-03-01T08:46:32;7.10;80.30
16863;DHT22;52193;48.216;-1.698;2023-03-01T08:48:59;7.20;80.50
16863;DHT22;52193;48.216;-1.698;2023-03-01T08:51:26;7.20;80.20
16863;DHT22;52193;48.216;-1.698;2023-03-01T08:53:54;7.20;79.80
16863;DHT22;52193;48.216;-1.698;2023-03-01T08:56:21;7.30;79.80
16863;DHT22;52193;48.216;-1.698;2023-03-01T08:58:49;7.40;79.80
16863;DHT22;52193;48.216;-1.698;2023-03-01T09:01:17;7.30;79.80
16863;DHT22;52193;48.216;-1.698;2023-03-01T09:03:45;7.40;80.00
16863;DHT22;52193;48.216;-1.698;2023-03-01T09:06:12;7.40;80.30
16863;DHT22;52193;48.216;-1.698;2023-03-01T09:08:42;7.50;80.00
16863;DHT22;52193;48.216;-1.698;2023-03-01T09:11:10;7.60;79.80
16863;DHT22;52193;48.216;-1.698;2023-03-01T09:13:38;7.50;79.50
16863;DHT22;52193;48.216;-1.698;2023-03-01T09:16:06;7.50;79.70
16863;DHT22;52193;48.216;-1.698;2023-03-01T09:18:34;7.60;79.50
16863;DHT22;52193;48.216;-1.698;2023-03-01T09:21:05;7.70;79.70
16863;DHT22;52193;48.216;-1.698;2023-03-01T09:23:34;7.70;79.80
16863;DHT22;52193;48.216;-1.698;2023-03-01T09:26:01;7.80;79.80
16863;DHT22;52193;48.216;-1.698;2023-03-01T09:28:28;7.80;79.50
16863;DHT22;52193;48.216;-1.698;2023-03-01T09:30:58;7.80;79.30
16863;DHT22;52193;48.216;-1.698;2023-03-01T09:33:25;7.90;79.50
16863;DHT22;52193;48.216;-1.698;2023-03-01T09:35:56;8.00;79.60
16863;DHT22;52193;48.216;-1.698;2023-03-01T09:38:24;8.00;79.60
16863;DHT22;52193;48.216;-1.698;2023-03-01T09:40:52;8.00;79.70
16863;DHT22;52193;48.216;-1.698;2023-03-01T09:43:23;8.10;79.90
16863;DHT22;52193;48.216;-1.698;2023-03-01T09:45:54;8.20;80.00
16863;DHT22;52193;48.216;-1.698;2023-03-01T09:48:25;8.30;79.60
16863;DHT22;52193;48.216;-1.698;2023-03-01T09:50:53;8.30;79.30
16863;DHT22;52193;48.216;-1.698;2023-03-01T09:53:22;8.40;79.10
16863;DHT22;52193;48.216;-1.698;2023-03-01T09:55:54;8.50;78.90
16863;DHT22;52193;48.216;-1.698;2023-03-01T09:58:34;8.50;79.10
16863;DHT22;52193;48.216;-1.698;2023-03-01T10:01:15;8.60;79.50
16863;DHT22;52193;48.216;-1.698;2023-03-01T10:03:59;8.70;78.80
16863;DHT22;52193;48.216;-1.698;2023-03-01T10:06:28;8.80;78.80
16863;DHT22;52193;48.216;-1.698;2023-03-01T10:08:57;8.90;78.60
16863;DHT22;52193;48.216;-1.698;2023-03-01T10:11:30;8.90;78.50
16863;DHT22;52193;48.216;-1.698;2023-03-01T10:14:01;9.00;78.80
16863;DHT22;52193;48.216;-1.698;2023-03-01T10:16:38;9.10;78.50
16863;DHT22;52193;48.216;-1.698;2023-03-01T10:19:12;9.10;78.60
16863;DHT22;52193;48.216;-1.698;2023-03-01T10:21:44;9.10;78.40
16863;DHT22;52193;48.216;-1.698;2023-03-01T10:24:14;9.20;78.10
16863;DHT22;52193;48.216;-1.698;2023-03-01T10:26:50;9.30;78.00
16863;DHT22;52193;48.216;-1.698;2023-03-01T10:29:24;9.30;78.30
16863;DHT22;52193;48.216;-1.698;2023-03-01T10:31:53;9.40;78.20
16863;DHT22;52193;48.216;-1.698;2023-03-01T10:34:25;9.50;78.00
16863;DHT22;52193;48.216;-1.698;2023-03-01T10:36:57;9.50;77.40
16863;DHT22;52193;48.216;-1.698;2023-03-01T10:39:26;9.60;77.90
16863;DHT22;52193;48.216;-1.698;2023-03-01T10:42:05;9.70;77.90
16863;DHT22;52193;48.216;-1.698;2023-03-01T10:44:47;9.70;78.10
16863;DHT22;52193;48.216;-1.698;2023-03-01T10:47:17;9.70;77.50
16863;DHT22;52193;48.216;-1.698;2023-03-01T10:49:54;9.80;77.20
16863;DHT22;52193;48.216;-1.698;2023-03-01T10:52:23;9.80;77.70
16863;DHT22;52193;48.216;-1.698;2023-03-01T10:54:53;9.90;77.70
16863;DHT22;52193;48.216;-1.698;2023-03-01T10:57:40;10.00;76.80
16863;DHT22;52193;48.216;-1.698;2023-03-01T11:00:25;10.10;76.90
16863;DHT22;52193;48.216;-1.698;2023-03-01T11:03:09;10.10;76.60
16863;DHT22;52193;48.216;-1.698;2023-03-01T11:05:36;10.20;77.20
16863;DHT22;52193;48.216;-1.698;2023-03-01T11:08:04;10.30;77.10
16863;DHT22;52193;48.216;-1.698;2023-03-01T11:10:33;10.40;77.30
16863;DHT22;52193;48.216;-1.698;2023-03-01T11:13:13;10.40;77.20
16863;DHT22;52193;48.216;-1.698;2023-03-01T11:15:41;10.50;77.50
16863;DHT22;52193;48.216;-1.698;2023-03-01T11:18:19;10.60;76.80
16863;DHT22;52193;48.216;-1.698;2023-03-01T11:20:48;10.70;77.20
16863;DHT22;52193;48.216;-1.698;2023-03-01T11:23:18;10.70;76.90
16863;DHT22;52193;48.216;-1.698;2023-03-01T11:25:51;10.70;76.70
16863;DHT22;52193;48.216;-1.698;2023-03-01T11:28:22;10.70;77.00
16863;DHT22;52193;48.216;-1.698;2023-03-01T11:30:54;10.80;77.00
16863;DHT22;52193;48.216;-1.698;2023-03-01T11:33:34;10.90;77.20
16863;DHT22;52193;48.216;-1.698;2023-03-01T11:36:05;11.00;77.90
16863;DHT22;52193;48.216;-1.698;2023-03-01T11:38:35;11.10;78.10
16863;DHT22;52193;48.216;-1.698;2023-03-01T11:41:06;11.20;77.40
16863;DHT22;52193;48.216;-1.698;2023-03-01T11:43:44;11.30;77.30
16863;DHT22;52193;48.216;-1.698;2023-03-01T11:46:37;11.30;76.10
16863;DHT22;52193;48.216;-1.698;2023-03-01T11:49:27;11.40;75.90
16863;DHT22;52193;48.216;-1.698;2023-03-01T11:52:03;11.50;76.10
16863;DHT22;52193;48.216;-1.698;2023-03-01T11:54:43;11.60;75.50
16863;DHT22;52193;48.216;-1.698;2023-03-01T11:57:18;11.70;75.20
16863;DHT22;52193;48.216;-1.698;2023-03-01T12:00:17;11.90;75.30
16863;DHT22;52193;48.216;-1.698;2023-03-01T12:06:12;12.00;75.60
16863;DHT22;52193;48.216;-1.698;2023-03-01T12:08:55;12.20;75.10
16863;DHT22;52193;48.216;-1.698;2023-03-01T12:11:36;12.30;74.40
16863;DHT22;52193;48.216;-1.698;2023-03-01T12:17:42;12.40;74.40
16863;DHT22;52193;48.216;-1.698;2023-03-01T12:20:21;12.50;74.90
16863;DHT22;52193;48.216;-1.698;2023-03-01T12:23:11;12.70;74.40
16863;DHT22;52193;48.216;-1.698;2023-03-01T12:25:45;12.80;74.20
16863;DHT22;52193;48.216;-1.698;2023-03-01T12:28:26;12.80;74.30
16863;DHT22;52193;48.216;-1.698;2023-03-01T12:34:03;13.00;73.20
16863;DHT22;52193;48.216;-1.698;2023-03-01T12:37:03;13.00;73.00
16863;DHT22;52193;48.216;-1.698;2023-03-01T12:39:44;13.10;72.10
16863;DHT22;52193;48.216;-1.698;2023-03-01T12:42:21;13.20;70.60
16863;DHT22;52193;48.216;-1.698;2023-03-01T12:45:25;13.30;70.90
16863;DHT22;52193;48.216;-1.698;2023-03-01T12:48:07;13.40;70.80
16863;DHT22;52193;48.216;-1.698;2023-03-01T12:50:41;13.70;70.80
16863;DHT22;52193;48.216;-1.698;2023-03-01T12:53:22;13.80;70.60
16863;DHT22;52193;48.216;-1.698;2023-03-01T12:55:51;13.90;70.30
16863;DHT22;52193;48.216;-1.698;2023-03-01T12:58:25;14.00;70.30
16863;DHT22;52193;48.216;-1.698;2023-03-01T13:01:03;14.00;70.30
16863;DHT22;52193;48.216;-1.698;2023-03-01T13:03:42;14.10;70.70
16863;DHT22;52193;48.216;-1.698;2023-03-01T13:06:21;14.20;70.70
16863;DHT22;52193;48.216;-1.698;2023-03-01T13:08:58;14.30;70.70
16863;DHT22;52193;48.216;-1.698;2023-03-01T13:11:27;14.30;70.20
16863;DHT22;52193;48.216;-1.698;2023-03-01T13:14:36;14.30;69.70
16863;DHT22;52193;48.216;-1.698;2023-03-01T13:17:31;14.40;69.60
16863;DHT22;52193;48.216;-1.698;2023-03-01T13:19:59;14.70;69.50
16863;DHT22;52193;48.216;-1.698;2023-03-01T13:22:30;14.70;69.50
16863;DHT22;52193;48.216;-1.698;2023-03-01T13:25:10;14.90;69.60
16863;DHT22;52193;48.216;-1.698;2023-03-01T13:27:38;15.00;69.60
16863;DHT22;52193;48.216;-1.698;2023-03-01T13:30:38;15.10;69.60
16863;DHT22;52193;48.216;-1.698;2023-03-01T13:33:37;15.40;69.60
16863;DHT22;52193;48.216;-1.698;2023-03-01T13:36:07;15.70;69.70
16863;DHT22;52193;48.216;-1.698;2023-03-01T13:38:44;15.80;69.40
16863;DHT22;52193;48.216;-1.698;2023-03-01T13:41:47;16.10;69.90
16863;DHT22;52193;48.216;-1.698;2023-03-01T13:44:12;16.30;68.70
16863;DHT22;52193;48.216;-1.698;2023-03-01T13:46:40;16.50;68.40
16863;DHT22;52193;48.216;-1.698;2023-03-01T13:49:12;16.80;68.20
16863;DHT22;52193;48.216;-1.698;2023-03-01T13:51:40;17.10;68.60
16863;DHT22;52193;48.216;-1.698;2023-03-01T13:54:12;17.20;67.20
16863;DHT22;52193;48.216;-1.698;2023-03-01T13:56:39;17.50;66.70
16863;DHT22;52193;48.216;-1.698;2023-03-01T13:59:13;18.00;66.20
16863;DHT22;52193;48.216;-1.698;2023-03-01T14:01:40;18.50;65.30
16863;DHT22;52193;48.216;-1.698;2023-03-01T14:04:21;19.20;64.60
16863;DHT22;52193;48.216;-1.698;2023-03-01T14:06:48;19.80;63.40
16863;DHT22;52193;48.216;-1.698;2023-03-01T14:09:20;20.30;62.10
16863;DHT22;52193;48.216;-1.698;2023-03-01T14:12:13;20.70;61.50
16863;DHT22;52193;48.216;-1.698;2023-03-01T14:14:52;21.70;60.90
16863;DHT22;52193;48.216;-1.698;2023-03-01T14:17:52;22.80;60.40
16863;DHT22;52193;48.216;-1.698;2023-03-01T14:20:23;23.50;59.50
16863;DHT22;52193;48.216;-1.698;2023-03-01T14:22:53;24.40;59.00
16863;DHT22;52193;48.216;-1.698;2023-03-01T14:25:25;24.70;57.70
16863;DHT22;52193;48.216;-1.698;2023-03-01T14:27:59;25.30;57.70
16863;DHT22;52193;48.216;-1.698;2023-03-01T14:30:30;25.80;57.00
16863;DHT22;52193;48.216;-1.698;2023-03-01T14:32:59;26.30;56.40
16863;DHT22;52193;48.216;-1.698;2023-03-01T14:35:28;26.70;55.60
16863;DHT22;52193;48.216;-1.698;2023-03-01T14:37:56;26.90;55.30
16863;DHT22;52193;48.216;-1.698;2023-03-01T14:40:27;27.10;55.00
16863;DHT22;52193;48.216;-1.698;2023-03-01T14:42:56;27.20;54.80
16863;DHT22;52193;48.216;-1.698;2023-03-01T14:45:27;27.40;54.30
16863;DHT22;52193;48.216;-1.698;2023-03-01T14:47:54;27.70;54.00
16863;DHT22;52193;48.216;-1.698;2023-03-01T14:50:24;27.90;53.80
16863;DHT22;52193;48.216;-1.698;2023-03-01T14:52:54;28.30;53.40
16863;DHT22;52193;48.216;-1.698;2023-03-01T14:55:26;28.00;53.40
16863;DHT22;52193;48.216;-1.698;2023-03-01T14:57:56;28.30;53.40
16863;DHT22;52193;48.216;-1.698;2023-03-01T15:00:26;29.10;52.90
16863;DHT22;52193;48.216;-1.698;2023-03-01T15:02:55;30.10;52.30
16863;DHT22;52193;48.216;-1.698;2023-03-01T15:05:26;31.00;51.60
16863;DHT22;52193;48.216;-1.698;2023-03-01T15:07:55;31.70;51.50
16863;DHT22;52193;48.216;-1.698;2023-03-01T15:10:26;32.20;50.10
16863;DHT22;52193;48.216;-1.698;2023-03-01T15:12:53;32.60;49.60
16863;DHT22;52193;48.216;-1.698;2023-03-01T15:15:32;32.90;49.10
16863;DHT22;52193;48.216;-1.698;2023-03-01T15:18:01;32.90;49.00
16863;DHT22;52193;48.216;-1.698;2023-03-01T15:20:29;33.80;48.70
16863;DHT22;52193;48.216;-1.698;2023-03-01T15:23:01;34.30;48.00
16863;DHT22;52193;48.216;-1.698;2023-03-01T15:25:32;34.50;47.70
16863;DHT22;52193;48.216;-1.698;2023-03-01T15:28:01;34.70;47.80
16863;DHT22;52193;48.216;-1.698;2023-03-01T15:30:31;34.80;47.60
16863;DHT22;52193;48.216;-1.698;2023-03-01T15:33:36;34.80;47.30
16863;DHT22;52193;48.216;-1.698;2023-03-01T15:36:31;34.90;46.40
16863;DHT22;52193;48.216;-1.698;2023-03-01T15:38:59;35.00;46.60
16863;DHT22;52193;48.216;-1.698;2023-03-01T15:41:29;35.00;46.40
16863;DHT22;52193;48.216;-1.698;2023-03-01T15:43:58;35.00;46.60
16863;DHT22;52193;48.216;-1.698;2023-03-01T15:46:28;34.70;45.40
16863;DHT22;52193;48.216;-1.698;2023-03-01T15:48:58;34.60;45.90
16863;DHT22;52193;48.216;-1.698;2023-03-01T15:51:31;34.50;46.00
16863;DHT22;52193;48.216;-1.698;2023-03-01T15:54:02;34.20;45.80
16863;DHT22;52193;48.216;-1.698;2023-03-01T15:56:30;33.80;46.10
16863;DHT22;52193;48.216;-1.698;2023-03-01T15:58:59;33.80;45.90
16863;DHT22;52193;48.216;-1.698;2023-03-01T16:01:26;33.70;45.80
16863;DHT22;52193;48.216;-1.698;2023-03-01T16:03:53;33.20;46.00